Time;durP1;ratioP1;P1;durP2;ratioP2;P2;SDS_P1;SDS_P2;PMS_P1;PMS_P2;Temp;Humidity;BMP_temperature;BMP_pressure;BME280_temperature;BME280_humidity;BME280_pressure;Samples;Min_cycle;Max_cycle;Signal;HPM_P1;HPM_P2
2021/07/20 00:01:13;;;;;;;;;;;;;;;;;;5103921;28;20382;-71
2021/07/20 00:03:41;;;;;;;;;;;;;;;;;;5108588;28;19924;-71
2021/07/20 00:06:08;;;;;;;;;;;;;;;;;;5109821;28;20005;-71
2021/07/20 00:08:34;;;;;;;;;;;;;;;;;;5103580;28;19923;-68
2021/07/20 00:11:01;;;;;;;;;;;;;;;;;;5093723;28;19924;-68
2021/07/20 00:13:28;;;;;;;;;;;;;;;;;;5100451;28;20398;-68
2021/07/20 00:15:55;;;;;;;;;;;;;;;;;;5104543;28;19923;-68
2021/07/20 00:18:22;;;;;;;;;;;;;;;;;;5108823;28;19996;-67
2021/07/20 00:20:49;;;;;;;;;;;;;;;;;;5107233;28;19924;-68
2021/07/20 00:23:16;;;;;;;;;;;;;;;;;;5105045;28;19931;-68
2021/07/20 00:25:45;;;;;;;;;;;;;;;;;;5104964;28;19924;-68
2021/07/20 00:28:12;;;;;;;;;;;;;;;;;;5102829;28;19923;-68
2021/07/20 00:30:39;;;;;;;;;;;;;;;;;;5101564;28;20368;-69
2021/07/20 00:33:06;;;;;;;;;;;;;;;;;;5105497;28;19923;-68
2021/07/20 00:35:33;;;;;;;;;;;;;;;;;;5106813;28;20044;-68
2021/07/20 00:38:00;;;;;;;;;;;;;;;;;;5104231;28;19931;-68
2021/07/20 00:40:27;;;;;;;;;;;;;;;;;;5104313;28;19924;-68
2021/07/20 00:42:54;;;;;;;;;;;;;;;;;;5102974;28;19977;-68
2021/07/20 00:45:21;;;;;;;;;;;;;;;;;;5105223;28;19924;-67
2021/07/20 00:47:48;;;;;;;;;;;;;;;;;;5102875;28;19924;-67
2021/07/20 00:50:15;;;;;;;;;;;;;;;;;;5106819;28;20371;-67
2021/07/20 00:52:42;;;;;;;;;;;;;;;;;;5105699;28;19932;-68
2021/07/20 00:55:09;;;;;;;;;;;;;;;;;;5106275;28;19923;-68
2021/07/20 00:57:36;;;;;;;;;;;;;;;;;;5105874;28;20442;-67
2021/07/20 01:00:03;;;;;;;;;;;;;;;;;;5110414;28;20270;-67
2021/07/20 01:02:30;;;;;;;;;;;;;;;;;;5099256;28;19938;-68
2021/07/20 01:04:57;;;;;;;;;;;;;;;;;;5098734;28;19931;-67
2021/07/20 01:07:24;;;;;;;;;;;;;;;;;;5102529;28;21115;-67
2021/07/20 01:09:51;;;;;;;;;;;;;;;;;;5102683;28;19963;-68
2021/07/20 01:12:18;;;;;;;;;;;;;;;;;;5106322;28;19923;-68
2021/07/20 01:14:45;;;;;;;;;;;;;;;;;;5105471;28;19924;-67
2021/07/20 01:17:12;;;;;;;;;;;;;;;;;;5109490;28;19932;-67
2021/07/20 01:19:39;;;;;;;;;;;;;;;;;;5109275;28;19932;-67
2021/07/20 01:22:06;;;;;;;;;;;;;;;;;;5105776;28;19924;-67
2021/07/20 01:24:33;;;;;;;;;;;;;;;;;;5105305;28;19928;-67
2021/07/20 01:27:00;;;;;;;;;;;;;;;;;;5104491;28;19924;-67
2021/07/20 01:29:27;;;;;;;;;;;;;;;;;;5108013;28;20296;-67
2021/07/20 01:31:54;;;;;;;;;;;;;;;;;;5102737;28;19931;-68
2021/07/20 01:34:21;;;;;;;;;;;;;;;;;;5104964;28;19928;-68
2021/07/20 01:36:48;;;;;;;;;;;;;;;;;;5100133;28;20432;-67
2021/07/20 01:39:15;;;;;;;;;;;;;;;;;;5103887;28;19924;-68
2021/07/20 01:41:42;;;;;;;;;;;;;;;;;;5107428;28;19932;-68
2021/07/20 01:44:09;;;;;;;;;;;;;;;;;;5097752;28;19924;-67
2021/07/20 01:46:36;;;;;;;;;;;;;;;;;;5103693;28;19924;-68
2021/07/20 01:49:03;;;;;;;;;;;;;;;;;;5107016;28;19924;-68
2021/07/20 01:51:30;;;;;;;;;;;;;;;;;;5108602;28;19931;-68
2021/07/20 01:53:59;;;;;;;;;;;;;;;;;;5107244;28;19946;-68
2021/07/20 01:56:26;;;;;;;;;;;;;;;;;;5102941;28;19935;-68
2021/07/20 01:58:53;;;;;;;;;;;;;;;;;;5103381;28;19928;-69
2021/07/20 02:01:20;;;;;;;;;;;;;;;;;;5111380;28;19931;-69
2021/07/20 02:04:10;;;;;;;;;;;;;;;;;;5111443;28;19924;-69
2021/07/20 02:09:22;;;;;;;;;;;;;;;;;;5105345;28;20287;-69
2021/07/20 02:11:49;;;;;;;;;;;;;;;;;;5107223;28;19940;-69
2021/07/20 02:14:16;;;;;;;;;;;;;;;;;;5108261;28;19930;-68
2021/07/20 02:16:43;;;;;;;;;;;;;;;;;;5111321;28;19927;-69
2021/07/20 02:19:10;;;;;;;;;;;;;;;;;;5108642;28;20291;-68
2021/07/20 02:21:37;;;;;;;;;;;;;;;;;;5105513;28;19943;-68
2021/07/20 02:24:04;;;;;;;;;;;;;;;;;;5105563;28;19931;-68
2021/07/20 02:26:31;;;;;;;;;;;;;;;;;;5100339;28;19965;-68
2021/07/20 02:28:58;;;;;;;;;;;;;;;;;;5101341;28;20406;-68
2021/07/20 02:31:24;;;;;;;;;;;;;;;;;;5101691;28;19927;-68
2021/07/20 02:33:51;;;;;;;;;;;;;;;;;;5104448;28;19931;-68
2021/07/20 02:36:18;;;;;;;;;;;;;;;;;;5107275;28;19923;-68
2021/07/20 02:38:45;;;;;;;;;;;;;;;;;;5105814;28;19924;-69
2021/07/20 02:41:12;;;;;;;;;;;;;;;;;;5103001;28;19928;-67
2021/07/20 02:43:39;;;;;;;;;;;;;;;;;;5101783;28;20331;-67
2021/07/20 02:46:06;;;;;;;;;;;;;;;;;;5105638;28;19924;-67
2021/07/20 02:48:33;;;;;;;;;;;;;;;;;;5107086;28;20318;-68
2021/07/20 02:51:00;;;;;;;;;;;;;;;;;;5107482;28;19923;-68
2021/07/20 02:53:30;;;;;;;;;;;;;;;;;;5097483;28;21122;-68
2021/07/20 02:55:57;;;;;;;;;;;;;;;;;;5101040;28;20383;-67
2021/07/20 02:58:24;;;;;;;;;;;;;;;;;;5099663;28;20271;-67
2021/07/20 03:00:51;;;;;;;;;;;;;;;;;;5106417;28;19924;-68
2021/07/20 03:03:18;;;;;;;;;;;;;;;;;;5101828;28;19924;-68
2021/07/20 03:05:45;;;;;;;;;;;;;;;;;;5105874;28;19930;-68
2021/07/20 03:08:12;;;;;;;;;;;;;;;;;;5104833;28;20415;-68
2021/07/20 03:10:39;;;;;;;;;;;;;;;;;;5105523;28;19924;-68
2021/07/20 03:13:06;;;;;;;;;;;;;;;;;;5108099;28;19928;-68
2021/07/20 03:15:33;;;;;;;;;;;;;;;;;;5108809;28;19934;-68
2021/07/20 03:18:00;;;;;;;;;;;;;;;;;;5105223;28;19924;-68
2021/07/20 03:20:27;;;;;;;;;;;;;;;;;;5103550;28;19969;-67
2021/07/20 03:22:54;;;;;;;;;;;;;;;;;;5096303;28;19947;-68
2021/07/20 03:25:21;;;;;;;;;;;;;;;;;;5101116;28;20299;-68
2021/07/20 03:27:48;;;;;;;;;;;;;;;;;;5106359;28;20414;-68
2021/07/20 03:30:14;;;;;;;;;;;;;;;;;;5099935;28;20141;-68
2021/07/20 03:32:44;;;;;;;;;;;;;;;;;;5103489;28;19924;-69
2021/07/20 03:35:11;;;;;;;;;;;;;;;;;;5103886;28;19931;-68
2021/07/20 03:37:38;;;;;;;;;;;;;;;;;;5106501;28;19923;-68
2021/07/20 03:40:05;;;;;;;;;;;;;;;;;;5094142;22;19929;-66
2021/07/20 03:42:32;;;;;;;;;;;;;;;;;;5063571;28;19928;-66
2021/07/20 03:44:59;;;;;;;;;;;;;;;;;;5064448;28;19929;-66
2021/07/20 03:47:26;;;;;;;;;;;;;;;;;;5064621;28;20376;-66
2021/07/20 03:49:52;;;;;;;;;;;;;;;;;;5082897;28;19932;-65
2021/07/20 03:52:19;;;;;;;;;;;;;;;;;;5085870;28;19924;-66
2021/07/20 03:54:46;;;;;;;;;;;;;;;;;;5079505;28;19925;-66
2021/07/20 03:57:15;;;;;;;;;;;;;;;;;;5076560;28;19924;-66
2021/07/20 03:59:42;;;;;;;;;;;;;;;;;;5077809;28;19933;-66
2021/07/20 04:02:09;;;;;;;;;;;;;;;;;;5083822;28;19935;-66
2021/07/20 04:04:36;;;;;;;;;;;;;;;;;;5080904;28;19950;-65
2021/07/20 04:07:03;;;;;;;;;;;;;;;;;;5080073;28;19924;-66
2021/07/20 04:09:30;;;;;;;;;;;;;;;;;;5085936;28;19931;-66
2021/07/20 04:11:57;;;;;;;;;;;;;;;;;;5078046;28;20291;-66
2021/07/20 04:14:24;;;;;;;;;;;;;;;;;;5080981;28;19928;-65
2021/07/20 04:16:51;;;;;;;;;;;;;;;;;;5083485;28;19924;-65
2021/07/20 04:19:18;;;;;;;;;;;;;;;;;;5088427;28;19930;-66
2021/07/20 04:21:45;;;;;;;;;;;;;;;;;;5081125;28;20051;-67
2021/07/20 04:24:12;;;;;;;;;;;;;;;;;;5072494;28;20580;-66
2021/07/20 04:26:39;;;;;;;;;;;;;;;;;;5079590;28;19928;-66
2021/07/20 04:29:06;;;;;;;;;;;;;;;;;;5081778;28;19924;-67
2021/07/20 04:31:32;;;;;;;;;;;;;;;;;;5085498;28;20014;-67
2021/07/20 04:33:59;;;;;;;;;;;;;;;;;;5084459;28;19924;-66
2021/07/20 04:36:26;;;;;;;;;;;;;;;;;;5084676;28;20384;-66
2021/07/20 04:38:53;;;;;;;;;;;;;;;;;;5079255;28;19930;-66
2021/07/20 04:41:20;;;;;;;;;;;;;;;;;;5080582;28;19927;-66
2021/07/20 04:43:47;;;;;;;;;;;;;;;;;;5083528;28;20001;-67
2021/07/20 04:46:14;;;;;;;;;;;;;;;;;;5079186;28;19924;-66
2021/07/20 04:48:41;;;;;;;;;;;;;;;;;;5080174;28;19931;-66
2021/07/20 04:51:08;;;;;;;;;;;;;;;;;;5081730;28;20427;-65
2021/07/20 04:53:35;;;;;;;;;;;;;;;;;;5081681;28;19928;-65
2021/07/20 04:56:02;;;;;;;;;;;;;;;;;;5082533;28;19924;-66
2021/07/20 04:58:29;;;;;;;;;;;;;;;;;;5078638;28;19947;-67
2021/07/20 05:00:56;;;;;;;;;;;;;;;;;;5077243;28;19924;-66
2021/07/20 05:03:23;;;;;;;;;;;;;;;;;;5079393;28;20380;-66
2021/07/20 05:05:50;;;;;;;;;;;;;;;;;;5082817;28;20295;-66
2021/07/20 05:08:17;;;;;;;;;;;;;;;;;;5086082;28;19933;-66
2021/07/20 05:10:44;;;;;;;;;;;;;;;;;;5087268;28;19935;-66
2021/07/20 05:13:11;;;;;;;;;;;;;;;;;;5083576;28;19931;-66
2021/07/20 05:15:38;;;;;;;;;;;;;;;;;;5077122;28;19932;-67
2021/07/20 05:18:05;;;;;;;;;;;;;;;;;;5081059;28;19925;-65
2021/07/20 05:20:32;;;;;;;;;;;;;;;;;;5079683;28;19935;-66
2021/07/20 05:22:59;;;;;;;;;;;;;;;;;;5083903;28;19928;-66
2021/07/20 05:25:26;;;;;;;;;;;;;;;;;;5079575;28;20430;-65
2021/07/20 05:27:55;;;;;;;;;;;;;;;;;;5074136;28;19970;-66
2021/07/20 05:30:22;;;;;;;;;;;;;;;;;;5083500;28;19940;-65
2021/07/20 05:32:50;;;;;;;;;;;;;;;;;;5086972;28;19943;-65
2021/07/20 05:35:16;;;;;;;;;;;;;;;;;;5083589;28;20491;-65
2021/07/20 05:37:43;;;;;;;;;;;;;;;;;;5080859;28;19964;-66
2021/07/20 05:40:10;;;;;;;;;;;;;;;;;;5085142;28;19947;-66
2021/07/20 05:42:38;;;;;;;;;;;;;;;;;;5084785;28;19932;-65
2021/07/20 05:45:04;;;;;;;;;;;;;;;;;;5082378;28;20379;-66
2021/07/20 05:47:31;;;;;;;;;;;;;;;;;;5082854;28;19935;-65
2021/07/20 05:49:58;;;;;;;;;;;;;;;;;;5084617;28;19943;-66
2021/07/20 05:52:25;;;;;;;;;;;;;;;;;;5087550;28;19932;-65
2021/07/20 05:54:52;;;;;;;;;;;;;;;;;;5087455;28;20299;-66
2021/07/20 05:57:19;;;;;;;;;;;;;;;;;;5089159;28;19928;-66
2021/07/20 05:59:46;;;;;;;;;;;;;;;;;;5089637;28;19928;-65
2021/07/20 06:02:13;;;;;;;;;;;;;;;;;;5086727;28;19932;-66
2021/07/20 06:04:40;;;;;;;;;;;;;;;;;;5089680;28;19924;-66
2021/07/20 06:07:07;;;;;;;;;;;;;;;;;;5088871;28;19924;-66
2021/07/20 06:09:34;;;;;;;;;;;;;;;;;;5088963;28;19975;-66
2021/07/20 06:12:01;;;;;;;;;;;;;;;;;;5087996;28;19938;-66
2021/07/20 06:14:28;;;;;;;;;;;;;;;;;;5092103;28;19924;-66
2021/07/20 06:16:55;;;;;;;;;;;;;;;;;;5091124;28;20026;-67
2021/07/20 06:19:22;;;;;;;;;;;;;;;;;;5082156;28;19935;-66
2021/07/20 06:21:49;;;;;;;;;;;;;;;;;;5090327;28;20459;-66
2021/07/20 06:24:16;;;;;;;;;;;;;;;;;;5087512;28;19928;-66
2021/07/20 06:26:43;;;;;;;;;;;;;;;;;;5085839;28;19932;-66
2021/07/20 06:29:10;;;;;;;;;;;;;;;;;;5083159;28;20451;-66
2021/07/20 06:31:39;;;;;;;;;;;;;;;;;;5080344;28;19944;-66
2021/07/20 06:34:06;;;;;;;;;;;;;;;;;;5086551;28;20418;-66
2021/07/20 06:36:33;;;;;;;;;;;;;;;;;;5085130;28;19951;-66
2021/07/20 06:39:00;;;;;;;;;;;;;;;;;;5082858;28;19932;-65
2021/07/20 06:41:27;;;;;;;;;;;;;;;;;;5090244;28;19924;-66
2021/07/20 06:43:54;;;;;;;;;;;;;;;;;;5088843;28;19943;-65
2021/07/20 06:46:22;;;;;;;;;;;;;;;;;;5086878;28;20293;-65
2021/07/20 06:48:49;;;;;;;;;;;;;;;;;;5086012;28;19946;-65
2021/07/20 06:51:16;;;;;;;;;;;;;;;;;;5085628;28;19935;-66
2021/07/20 06:53:43;;;;;;;;;;;;;;;;;;5083909;28;19939;-66
2021/07/20 06:56:10;;;;;;;;;;;;;;;;;;5081187;28;19933;-65
2021/07/20 06:58:37;;;;;;;;;;;;;;;;;;5086719;28;19932;-66
2021/07/20 07:01:04;;;;;;;;;;;;;;;;;;5085588;28;19931;-66
2021/07/20 07:03:31;;;;;;;;;;;;;;;;;;5081768;28;20280;-65
2021/07/20 07:05:58;;;;;;;;;;;;;;;;;;5089064;28;19930;-65
2021/07/20 07:08:25;;;;;;;;;;;;;;;;;;5084502;28;19931;-65
2021/07/20 07:10:54;;;;;;;;;;;;;;;;;;5086394;28;19931;-65
2021/07/20 07:13:21;;;;;;;;;;;;;;;;;;5088874;28;19985;-65
2021/07/20 07:15:48;;;;;;;;;;;;;;;;;;5088236;28;20311;-66
2021/07/20 07:18:15;;;;;;;;;;;;;;;;;;5088787;28;19924;-65
2021/07/20 07:20:42;;;;;;;;;;;;;;;;;;5087289;28;19939;-65
2021/07/20 07:23:09;;;;;;;;;;;;;;;;;;5089106;28;19924;-66
2021/07/20 07:25:36;;;;;;;;;;;;;;;;;;5089687;28;19971;-66
2021/07/20 07:28:03;;;;;;;;;;;;;;;;;;5085524;28;20303;-65
2021/07/20 07:30:30;;;;;;;;;;;;;;;;;;5082407;28;20022;-66
2021/07/20 07:32:59;;;;;;;;;;;;;;;;;;5081769;28;20311;-66
2021/07/20 07:35:26;;;;;;;;;;;;;;;;;;5087650;28;20413;-66
2021/07/20 07:37:53;;;;;;;;;;;;;;;;;;5086242;28;19947;-65
2021/07/20 07:40:20;;;;;;;;;;;;;;;;;;5084473;28;19928;-65
2021/07/20 07:42:47;;;;;;;;;;;;;;;;;;5083314;28;19931;-65
2021/07/20 07:45:14;;;;;;;;;;;;;;;;;;5083518;28;20311;-65
2021/07/20 07:47:41;;;;;;;;;;;;;;;;;;5082075;28;19931;-66
2021/07/20 07:50:08;;;;;;;;;;;;;;;;;;5079111;28;20394;-65
2021/07/20 07:52:35;;;;;;;;;;;;;;;;;;5082807;28;19930;-66
2021/07/20 07:55:02;;;;;;;;;;;;;;;;;;5090291;28;19924;-66
2021/07/20 07:57:29;;;;;;;;;;;;;;;;;;5079324;28;19924;-66
2021/07/20 07:59:56;;;;;;;;;;;;;;;;;;5092678;28;20372;-65
2021/07/20 08:02:22;;;;;;;;;;;;;;;;;;5084551;28;19924;-65
2021/07/20 08:04:50;;;;;;;;;;;;;;;;;;5089032;28;19924;-65
2021/07/20 08:07:17;;;;;;;;;;;;;;;;;;5083230;28;19977;-65
2021/07/20 08:09:43;;;;;;;;;;;;;;;;;;5088602;28;19946;-65
2021/07/20 08:12:10;;;;;;;;;;;;;;;;;;5087341;28;19935;-65
2021/07/20 08:14:37;;;;;;;;;;;;;;;;;;5081288;28;19939;-65
2021/07/20 08:17:04;;;;;;;;;;;;;;;;;;5082061;28;20323;-65
2021/07/20 08:19:32;;;;;;;;;;;;;;;;;;5085360;28;19931;-65
2021/07/20 08:22:00;;;;;;;;;;;;;;;;;;5083343;28;19924;-66
2021/07/20 08:24:29;;;;;;;;;;;;;;;;;;5087152;28;19928;-65
2021/07/20 08:26:57;;;;;;;;;;;;;;;;;;5082458;28;20026;-66
2021/07/20 08:29:25;;;;;;;;;;;;;;;;;;5077194;28;19924;-66
2021/07/20 08:31:52;;;;;;;;;;;;;;;;;;5080994;28;19932;-65
2021/07/20 08:34:19;;;;;;;;;;;;;;;;;;5085498;28;19924;-65
2021/07/20 08:36:46;;;;;;;;;;;;;;;;;;5076541;28;19932;-65
2021/07/20 08:39:13;;;;;;;;;;;;;;;;;;5085502;28;19924;-65
2021/07/20 08:41:40;;;;;;;;;;;;;;;;;;5083776;28;19931;-65
2021/07/20 08:44:07;;;;;;;;;;;;;;;;;;5080567;28;19931;-65
2021/07/20 08:46:34;;;;;;;;;;;;;;;;;;5084307;28;19924;-65
2021/07/20 08:49:01;;;;;;;;;;;;;;;;;;5081556;28;19933;-65
2021/07/20 08:51:28;;;;;;;;;;;;;;;;;;5081134;28;20303;-65
2021/07/20 08:53:55;;;;;;;;;;;;;;;;;;5089398;28;19971;-65
2021/07/20 08:56:22;;;;;;;;;;;;;;;;;;5084074;28;20353;-65
2021/07/20 08:58:49;;;;;;;;;;;;;;;;;;5083795;28;19928;-65
2021/07/20 09:01:16;;;;;;;;;;;;;;;;;;5085372;28;20106;-65
2021/07/20 09:03:43;;;;;;;;;;;;;;;;;;5087293;28;19932;-65
2021/07/20 09:06:11;;;;;;;;;;;;;;;;;;5082816;28;19979;-65
2021/07/20 09:08:38;;;;;;;;;;;;;;;;;;5084560;28;20397;-65
2021/07/20 09:11:05;;;;;;;;;;;;;;;;;;5086439;28;19938;-65
2021/07/20 09:13:32;;;;;;;;;;;;;;;;;;5081612;28;19934;-65
2021/07/20 09:15:59;;;;;;;;;;;;;;;;;;5084534;28;19931;-65
2021/07/20 09:18:26;;;;;;;;;;;;;;;;;;5087379;28;19933;-65
2021/07/20 09:20:55;;;;;;;;;;;;;;;;;;5085915;28;19924;-65
2021/07/20 09:23:22;;;;;;;;;;;;;;;;;;5086672;28;19971;-66
2021/07/20 09:25:49;;;;;;;;;;;;;;;;;;5089628;28;19947;-64
2021/07/20 09:28:16;;;;;;;;;;;;;;;;;;5086940;28;19931;-66
2021/07/20 09:30:43;;;;;;;;;;;;;;;;;;5084668;28;20340;-66
2021/07/20 09:33:10;;;;;;;;;;;;;;;;;;5082007;28;19924;-65
2021/07/20 09:35:37;;;;;;;;;;;;;;;;;;5085713;28;19939;-66
2021/07/20 09:38:04;;;;;;;;;;;;;;;;;;5086876;28;19943;-65
2021/07/20 09:40:31;;;;;;;;;;;;;;;;;;5089485;28;19924;-65
2021/07/20 09:42:58;;;;;;;;;;;;;;;;;;5092408;28;19924;-64
2021/07/20 09:45:25;;;;;;;;;;;;;;;;;;5083244;28;19928;-65
2021/07/20 09:47:52;;;;;;;;;;;;;;;;;;5085620;28;19963;-65
2021/07/20 09:50:19;;;;;;;;;;;;;;;;;;5085637;28;19928;-66
2021/07/20 09:52:46;;;;;;;;;;;;;;;;;;5085105;28;19928;-67
2021/07/20 09:55:13;;;;;;;;;;;;;;;;;;5085835;28;20485;-65
2021/07/20 09:57:40;;;;;;;;;;;;;;;;;;5085707;28;19924;-65
2021/07/20 10:00:07;;;;;;;;;;;;;;;;;;5085443;28;19932;-65
2021/07/20 10:02:34;;;;;;;;;;;;;;;;;;5085805;28;19934;-66
2021/07/20 10:05:01;;;;;;;;;;;;;;;;;;5087723;28;19929;-66
2021/07/20 10:07:28;;;;;;;;;;;;;;;;;;5083919;28;20007;-65
2021/07/20 10:09:55;;;;;;;;;;;;;;;;;;5086034;28;19924;-66
2021/07/20 10:12:23;;;;;;;;;;;;;;;;;;5084535;28;20260;-66
2021/07/20 10:14:50;;;;;;;;;;;;;;;;;;5088600;28;19928;-66
2021/07/20 10:17:17;;;;;;;;;;;;;;;;;;5085699;28;19924;-65
2021/07/20 10:19:45;;;;;;;;;;;;;;;;;;5086209;28;20392;-66
2021/07/20 10:22:11;;;;;;;;;;;;;;;;;;5084759;28;19932;-65
2021/07/20 10:24:38;;;;;;;;;;;;;;;;;;5084896;28;19931;-66
2021/07/20 10:27:06;;;;;;;;;;;;;;;;;;5084711;28;19962;-65
2021/07/20 10:29:33;;;;;;;;;;;;;;;;;;5087558;28;19924;-64
2021/07/20 10:32:00;;;;;;;;;;;;;;;;;;5086700;28;20208;-64
2021/07/20 10:34:27;;;;;;;;;;;;;;;;;;5085481;28;19924;-64
2021/07/20 10:36:55;;;;;;;;;;;;;;;;;;5082096;28;20343;-65
2021/07/20 10:39:22;;;;;;;;;;;;;;;;;;5086310;28;19931;-65
2021/07/20 10:41:49;;;;;;;;;;;;;;;;;;5084063;28;19954;-64
2021/07/20 10:44:19;;;;;;;;;;;;;;;;;;5083943;28;20407;-64
2021/07/20 10:46:46;;;;;;;;;;;;;;;;;;5086453;28;19931;-65
2021/07/20 10:49:13;;;;;;;;;;;;;;;;;;5086174;28;20070;-64
2021/07/20 10:51:44;;;;;;;;;;;;;;;;;;5084887;28;20582;-65
2021/07/20 10:54:11;;;;;;;;;;;;;;;;;;5085245;28;19934;-64
2021/07/20 10:56:40;;;;;;;;;;;;;;;;;;5087638;28;19924;-65
2021/07/20 10:59:07;;;;;;;;;;;;;;;;;;5086883;28;20022;-65
2021/07/20 11:01:34;;;;;;;;;;;;;;;;;;5083653;28;20384;-65
2021/07/20 11:04:01;;;;;;;;;;;;;;;;;;5084921;28;19974;-65
2021/07/20 11:06:28;;;;;;;;;;;;;;;;;;5084615;28;19931;-65
2021/07/20 11:08:55;;;;;;;;;;;;;;;;;;5083620;28;19932;-67
2021/07/20 11:11:22;;;;;;;;;;;;;;;;;;5084796;28;20026;-65
2021/07/20 11:13:49;;;;;;;;;;;;;;;;;;5083252;28;19938;-65
2021/07/20 11:16:16;;;;;;;;;;;;;;;;;;5082754;28;19928;-66
2021/07/20 11:18:43;;;;;;;;;;;;;;;;;;5088142;28;19924;-65
2021/07/20 11:21:10;;;;;;;;;;;;;;;;;;5084642;28;20427;-67
2021/07/20 11:23:37;;;;;;;;;;;;;;;;;;5087294;28;19954;-66
2021/07/20 11:26:04;;;;;;;;;;;;;;;;;;5086063;28;19936;-66
2021/07/20 11:28:31;;;;;;;;;;;;;;;;;;5084290;28;20571;-66
2021/07/20 11:30:59;;;;;;;;;;;;;;;;;;5081974;28;19932;-66
2021/07/20 11:33:28;;;;;;;;;;;;;;;;;;5085612;28;19931;-67
2021/07/20 11:35:55;;;;;;;;;;;;;;;;;;5084155;28;19923;-66
2021/07/20 11:38:22;;;;;;;;;;;;;;;;;;5085871;28;19928;-66
2021/07/20 11:40:49;;;;;;;;;;;;;;;;;;5082312;28;19932;-67
2021/07/20 11:43:16;;;;;;;;;;;;;;;;;;5084814;28;19924;-67
2021/07/20 11:45:43;;;;;;;;;;;;;;;;;;5085790;28;20428;-67
2021/07/20 11:48:10;;;;;;;;;;;;;;;;;;5082553;28;19928;-67
2021/07/20 11:50:37;;;;;;;;;;;;;;;;;;5080231;28;20265;-67
2021/07/20 11:53:04;;;;;;;;;;;;;;;;;;5081908;28;19932;-66
2021/07/20 11:55:31;;;;;;;;;;;;;;;;;;5096754;28;19928;-67
2021/07/20 11:57:58;;;;;;;;;;;;;;;;;;5086300;28;19931;-67
2021/07/20 12:00:25;;;;;;;;;;;;;;;;;;5084398;28;19928;-67
2021/07/20 12:02:52;;;;;;;;;;;;;;;;;;5083367;28;19931;-66
2021/07/20 12:05:19;;;;;;;;;;;;;;;;;;5080824;28;19930;-67
2021/07/20 12:07:46;;;;;;;;;;;;;;;;;;5084535;28;20015;-66
2021/07/20 12:10:15;;;;;;;;;;;;;;;;;;5085390;28;19932;-67
2021/07/20 12:12:42;;;;;;;;;;;;;;;;;;5081989;28;20372;-67
2021/07/20 12:15:09;;;;;;;;;;;;;;;;;;5078885;28;19925;-67
2021/07/20 12:17:36;;;;;;;;;;;;;;;;;;5083958;28;19924;-67
2021/07/20 12:20:03;;;;;;;;;;;;;;;;;;5084332;28;19931;-67
2021/07/20 12:22:30;;;;;;;;;;;;;;;;;;5081679;28;20373;-67
2021/07/20 12:24:57;;;;;;;;;;;;;;;;;;5086064;28;20273;-66
2021/07/20 12:27:24;;;;;;;;;;;;;;;;;;5083347;28;19929;-67
2021/07/20 12:29:54;;;;;;;;;;;;;;;;;;5081504;28;19932;-67
2021/07/20 12:32:21;;;;;;;;;;;;;;;;;;5086001;28;19935;-67
2021/07/20 12:34:51;;;;;;;;;;;;;;;;;;5085976;28;20304;-67
2021/07/20 12:37:18;;;;;;;;;;;;;;;;;;5083571;28;19924;-67
2021/07/20 12:39:44;;;;;;;;;;;;;;;;;;5083554;28;19924;-66
2021/07/20 12:42:11;;;;;;;;;;;;;;;;;;5083750;28;19978;-68
2021/07/20 12:44:38;;;;;;;;;;;;;;;;;;5082194;28;19933;-67
2021/07/20 12:47:06;;;;;;;;;;;;;;;;;;5085345;28;20026;-67
2021/07/20 12:49:33;;;;;;;;;;;;;;;;;;5082722;28;20141;-68
2021/07/20 12:52:00;;;;;;;;;;;;;;;;;;5084869;28;19982;-68
2021/07/20 12:54:27;;;;;;;;;;;;;;;;;;5086305;28;19928;-68
2021/07/20 12:56:54;;;;;;;;;;;;;;;;;;5082952;28;19932;-68
2021/07/20 12:59:21;;;;;;;;;;;;;;;;;;5080580;28;19932;-67
2021/07/20 13:01:48;;;;;;;;;;;;;;;;;;5084065;28;19928;-67
2021/07/20 13:04:15;;;;;;;;;;;;;;;;;;5088074;28;19928;-67
2021/07/20 13:06:42;;;;;;;;;;;;;;;;;;5084490;28;20331;-67
2021/07/20 13:09:09;;;;;;;;;;;;;;;;;;5088368;28;19924;-67
2021/07/20 13:11:36;;;;;;;;;;;;;;;;;;5087873;28;19924;-67
2021/07/20 13:14:03;;;;;;;;;;;;;;;;;;5090323;28;19924;-66
2021/07/20 13:16:30;;;;;;;;;;;;;;;;;;5086534;28;20011;-66
2021/07/20 13:18:57;;;;;;;;;;;;;;;;;;5085168;28;19928;-66
2021/07/20 13:21:24;;;;;;;;;;;;;;;;;;5088998;28;19924;-65
2021/07/20 13:23:51;;;;;;;;;;;;;;;;;;5088327;28;19977;-65
2021/07/20 13:26:18;;;;;;;;;;;;;;;;;;5082022;28;20406;-65
2021/07/20 13:28:45;;;;;;;;;;;;;;;;;;5085393;28;20303;-66
2021/07/20 13:31:13;;;;;;;;;;;;;;;;;;5085346;28;19924;-65
2021/07/20 13:33:39;;;;;;;;;;;;;;;;;;5087924;28;20341;-66
2021/07/20 13:36:06;;;;;;;;;;;;;;;;;;5087068;28;19928;-66
2021/07/20 13:38:33;;;;;;;;;;;;;;;;;;5083370;28;19924;-66
2021/07/20 13:41:00;;;;;;;;;;;;;;;;;;5083568;28;20285;-65
2021/07/20 13:43:27;;;;;;;;;;;;;;;;;;5081325;28;19931;-65
2021/07/20 13:45:55;;;;;;;;;;;;;;;;;;5082244;28;20277;-66
2021/07/20 13:48:22;;;;;;;;;;;;;;;;;;5081490;28;19936;-65
2021/07/20 13:50:49;;;;;;;;;;;;;;;;;;5081360;28;19934;-66
2021/07/20 13:53:16;;;;;;;;;;;;;;;;;;5083419;28;19931;-65
2021/07/20 13:55:43;;;;;;;;;;;;;;;;;;5086128;28;19932;-65
2021/07/20 13:58:12;;;;;;;;;;;;;;;;;;5083350;28;20403;-65
2021/07/20 14:00:39;;;;;;;;;;;;;;;;;;5083657;28;19985;-66
2021/07/20 14:03:06;;;;;;;;;;;;;;;;;;5082972;28;19928;-65
2021/07/20 14:05:33;;;;;;;;;;;;;;;;;;5079319;28;20448;-65
2021/07/20 14:08:00;;;;;;;;;;;;;;;;;;5082445;28;20553;-66
2021/07/20 14:10:27;;;;;;;;;;;;;;;;;;5077975;28;19928;-65
2021/07/20 14:12:54;;;;;;;;;;;;;;;;;;5077327;28;20522;-66
2021/07/20 14:15:26;;;;;;;;;;;;;;;;;;5080720;28;19924;-66
2021/07/20 14:17:54;;;;;;;;;;;;;;;;;;5083250;28;20342;-66
2021/07/20 14:20:21;;;;;;;;;;;;;;;;;;5083407;28;20288;-65
2021/07/20 14:22:48;;;;;;;;;;;;;;;;;;5083904;28;19930;-65
2021/07/20 14:25:15;;;;;;;;;;;;;;;;;;5086377;28;19932;-66
2021/07/20 14:27:42;;;;;;;;;;;;;;;;;;5088841;28;20303;-67
2021/07/20 14:30:09;;;;;;;;;;;;;;;;;;5087932;28;19934;-66
2021/07/20 14:32:36;;;;;;;;;;;;;;;;;;5086608;28;19924;-67
2021/07/20 14:35:03;;;;;;;;;;;;;;;;;;5086543;28;19930;-66
2021/07/20 14:37:30;;;;;;;;;;;;;;;;;;5086777;28;19940;-67
2021/07/20 14:39:57;;;;;;;;;;;;;;;;;;5087224;28;19932;-67
2021/07/20 14:42:25;;;;;;;;;;;;;;;;;;5085562;28;19924;-68
2021/07/20 14:44:52;;;;;;;;;;;;;;;;;;5082596;28;19950;-67
2021/07/20 14:47:19;;;;;;;;;;;;;;;;;;5089292;28;19943;-66
2021/07/20 14:49:46;;;;;;;;;;;;;;;;;;5085642;28;19982;-67
2021/07/20 14:52:13;;;;;;;;;;;;;;;;;;5082747;28;19932;-67
2021/07/20 14:54:40;;;;;;;;;;;;;;;;;;5087811;28;19976;-66
2021/07/20 14:57:07;;;;;;;;;;;;;;;;;;5086231;28;19928;-66
2021/07/20 14:59:34;;;;;;;;;;;;;;;;;;5081761;28;19932;-67
2021/07/20 15:02:01;;;;;;;;;;;;;;;;;;5085218;28;20354;-67
2021/07/20 15:04:28;;;;;;;;;;;;;;;;;;5081940;28;19924;-67
2021/07/20 15:06:55;;;;;;;;;;;;;;;;;;5081222;28;19931;-68
2021/07/20 15:09:22;;;;;;;;;;;;;;;;;;5083377;28;19939;-66
2021/07/20 15:11:49;;;;;;;;;;;;;;;;;;5083765;28;19971;-67
2021/07/20 15:14:16;;;;;;;;;;;;;;;;;;5082471;28;20392;-66
2021/07/20 15:16:43;;;;;;;;;;;;;;;;;;5087085;28;20011;-69
2021/07/20 15:19:10;;;;;;;;;;;;;;;;;;5084091;28;20049;-67
2021/07/20 15:21:39;;;;;;;;;;;;;;;;;;5081761;28;19932;-67
2021/07/20 15:24:06;;;;;;;;;;;;;;;;;;5083430;28;19935;-68
2021/07/20 15:26:33;;;;;;;;;;;;;;;;;;5084247;28;19935;-68
2021/07/20 15:29:00;;;;;;;;;;;;;;;;;;5083205;28;20337;-68
2021/07/20 15:31:27;;;;;;;;;;;;;;;;;;5084345;28;19924;-67
2021/07/20 15:33:54;;;;;;;;;;;;;;;;;;5082799;28;19998;-69
2021/07/20 15:36:21;;;;;;;;;;;;;;;;;;5082144;28;19931;-69
2021/07/20 15:38:49;;;;;;;;;;;;;;;;;;5096399;22;20091;-69
2021/07/20 15:41:16;;;;;;;;;;;;;;;;;;5065838;28;19936;-69
2021/07/20 15:43:43;;;;;;;;;;;;;;;;;;5063844;28;19929;-70
2021/07/20 15:46:10;;;;;;;;;;;;;;;;;;5061593;28;19932;-69
2021/07/20 15:48:38;;;;;;;;;;;;;;;;;;5072802;28;19924;-71
2021/07/20 15:51:04;;;;;;;;;;;;;;;;;;5079079;28;19925;-70
2021/07/20 15:53:31;;;;;;;;;;;;;;;;;;5078516;28;20383;-69
2021/07/20 15:55:58;;;;;;;;;;;;;;;;;;5094895;28;19934;-70
2021/07/20 15:58:28;;;;;;;;;;;;;;;;;;5096518;28;19925;-69
2021/07/20 16:00:55;;;;;;;;;;;;;;;;;;5090757;28;20350;-69
2021/07/20 16:03:22;;;;;;;;;;;;;;;;;;5088880;28;19932;-70
2021/07/20 16:05:49;;;;;;;;;;;;;;;;;;5090406;28;20295;-69
2021/07/20 16:08:16;;;;;;;;;;;;;;;;;;5090315;28;19970;-71
2021/07/20 16:10:43;;;;;;;;;;;;;;;;;;5088898;28;20341;-70
2021/07/20 16:13:10;;;;;;;;;;;;;;;;;;5091351;28;19996;-71
2021/07/20 16:15:37;;;;;;;;;;;;;;;;;;5089553;28;19992;-70
2021/07/20 16:18:06;;;;;;;;;;;;;;;;;;5097094;28;19924;-70
2021/07/20 16:20:33;;;;;;;;;;;;;;;;;;5090531;28;19925;-70
2021/07/20 16:23:00;;;;;;;;;;;;;;;;;;5078657;28;19924;-70
2021/07/20 16:25:27;;;;;;;;;;;;;;;;;;5094181;28;19925;-70
2021/07/20 16:27:54;;;;;;;;;;;;;;;;;;5096266;28;20025;-71
2021/07/20 16:30:21;;;;;;;;;;;;;;;;;;5090274;28;19936;-71
2021/07/20 16:32:48;;;;;;;;;;;;;;;;;;5085073;28;19971;-69
2021/07/20 16:35:15;;;;;;;;;;;;;;;;;;5079809;28;19931;-70
2021/07/20 16:37:42;;;;;;;;;;;;;;;;;;5082570;28;19925;-69
2021/07/20 16:40:09;;;;;;;;;;;;;;;;;;5071465;28;19934;-69
2021/07/20 16:42:35;;;;;;;;;;;;;;;;;;5077690;28;19924;-69
2021/07/20 16:45:02;;;;;;;;;;;;;;;;;;5085259;28;20269;-70
2021/07/20 16:47:32;;;;;;;;;;;;;;;;;;5087779;28;19924;-71